Brigitte Bardot — VKV7340 — position and weather

sailwx.info

Track history (hours):
 
Tides and Currents Weather Stations Pressure Air Temp Water Temp Dewpoint Dewpoint Depression Visibility Wind Speed Wind Dir Waves Ship Positions

Brigitte Bardot

Last reported at 2017-Mar-24 07:32 UTC. Time now 2017-Mar-28 15:56 UTC.
Position N 42°26' E 011°07'.

Length 35 m.

Type: Pleasure craft. MMSI: 503645100.

Date/timePositionNaut miles runAvg speedWind from/ knotsBaromVisibWave heightAir tempDewpointWater temp
2017-Mar-24 07:32N 42°26' E 011°07'0 0.0
2017-Mar-24 06:32N 42°26' E 011°07'0 0.0
2017-Mar-24 05:32N 42°26' E 011°07'0 0.0
2017-Mar-24 04:32N 42°26' E 011°07'0 0.0
2017-Mar-24 03:32N 42°26' E 011°07'0 0.0
2017-Mar-24 02:32N 42°26' E 011°07'0 0.0
2017-Mar-24 01:29N 42°26' E 011°07'0 0.0
2017-Mar-24 00:32N 42°26' E 011°07'0 0.0
2017-Mar-23 23:32N 42°26' E 011°07'0 0.0
2017-Mar-23 22:32N 42°26' E 011°07'  
2017-Mar-21 13:31N 43°22' E 009°38'1010.1
2017-Mar-21 12:33N 43°31' E 009°32'1010.0
2017-Mar-21 11:33N 43°40' E 009°25'10 9.7
2017-Mar-21 10:33N 43°48' E 009°19'9 9.4
2017-Mar-21 09:33N 43°57' E 009°14'1010.4
2017-Mar-21 08:33N 44°06' E 009°07'1310.6
2017-Mar-21 07:17N 44°18' E 008°60'7 8.8
2017-Mar-21 06:30N 44°24' E 008°55'0 0.1
2017-Mar-21 05:22N 44°25' E 008°55'0 0.0
2017-Mar-21 04:25N 44°25' E 008°55'0 0.0
2017-Mar-21 03:22N 44°25' E 008°55'0 0.0
2017-Mar-21 02:25N 44°25' E 008°55'0 0.0
2017-Mar-21 01:25N 44°25' E 008°55'0 0.0
2017-Mar-21 00:28N 44°25' E 008°55'0 0.0
2017-Mar-20 23:28N 44°25' E 008°55'0 0.0
2017-Mar-20 22:13N 44°25' E 008°55'0 0.0
2017-Mar-20 21:28N 44°25' E 008°55'0 0.0
2017-Mar-20 20:25N 44°25' E 008°55'0 0.0
2017-Mar-20 19:28N 44°25' E 008°55'0 0.0
2017-Mar-20 18:28N 44°25' E 008°55'0 0.0
2017-Mar-20 17:27N 44°25' E 008°55'0 0.0
2017-Mar-20 16:27N 44°25' E 008°55'0 0.0
2017-Mar-20 15:33N 44°25' E 008°55'0 0.0
2017-Mar-20 14:33N 44°25' E 008°55'0 0.0
2017-Mar-20 13:33N 44°25' E 008°55'0 0.0
2017-Mar-20 12:33N 44°25' E 008°55'0 0.0
2017-Mar-20 11:33N 44°25' E 008°55'0 0.0
2017-Mar-20 10:21N 44°25' E 008°55'0 0.0
2017-Mar-20 09:33N 44°25' E 008°55'0 0.0
2017-Mar-20 08:33N 44°25' E 008°55'0 0.0
2017-Mar-20 07:33N 44°25' E 008°55'0 0.0
2017-Mar-20 06:24N 44°25' E 008°55'0 0.0
2017-Mar-20 05:24N 44°25' E 008°55'0 0.0
2017-Mar-20 04:27N 44°25' E 008°55'0 0.0
2017-Mar-20 03:27N 44°25' E 008°55'0 0.0
2017-Mar-20 02:27N 44°25' E 008°55'0 0.0
2017-Mar-20 01:30N 44°25' E 008°55'0 0.0
2017-Mar-20 00:30N 44°25' E 008°55'0 0.0
2017-Mar-19 23:30N 44°25' E 008°55'0 0.0
2017-Mar-19 22:33N 44°25' E 008°55'0 0.0
2017-Mar-19 21:33N 44°25' E 008°55'0 0.0
2017-Mar-19 20:33N 44°25' E 008°55'0 0.0
2017-Mar-19 19:33N 44°25' E 008°55'0 0.0
2017-Mar-19 18:33N 44°25' E 008°55'0 0.0
2017-Mar-19 17:33N 44°25' E 008°55'0 0.0
2017-Mar-19 16:33N 44°25' E 008°55'0 0.0
2017-Mar-19 15:24N 44°25' E 008°55'0 0.0
2017-Mar-19 14:24N 44°25' E 008°55'0 0.0
2017-Mar-19 13:27N 44°25' E 008°55'0 0.0
2017-Mar-19 12:27N 44°25' E 008°55'0 0.0
2017-Mar-19 11:27N 44°25' E 008°55'0 0.0
2017-Mar-19 10:30N 44°25' E 008°55'0 0.0
2017-Mar-19 09:27N 44°25' E 008°55'0 0.0
2017-Mar-19 08:30N 44°25' E 008°55'0 0.0
2017-Mar-19 07:33N 44°25' E 008°55'0 0.0
2017-Mar-19 06:33N 44°25' E 008°55'0 0.0
2017-Mar-19 05:33N 44°25' E 008°55'0 0.0
2017-Mar-19 04:33N 44°25' E 008°55'0 0.0
2017-Mar-19 03:33N 44°25' E 008°55'0 0.0
2017-Mar-19 02:33N 44°25' E 008°55'0 0.0
2017-Mar-19 01:33N 44°25' E 008°55'0 0.0
2017-Mar-19 00:21N 44°25' E 008°55'0 0.0
2017-Mar-18 23:27N 44°25' E 008°55'0 0.0
2017-Mar-18 22:24N 44°25' E 008°55'0 0.0
2017-Mar-18 21:27N 44°25' E 008°55'0 0.0
2017-Mar-18 20:27N 44°25' E 008°55'0 0.0
2017-Mar-18 19:27N 44°25' E 008°55'0 0.0
2017-Mar-18 18:27N 44°25' E 008°55'0 0.0
2017-Mar-18 17:30N 44°25' E 008°55'0 0.0
2017-Mar-18 16:30N 44°25' E 008°55'0 0.0
2017-Mar-18 15:30N 44°25' E 008°55'0 0.0
2017-Mar-18 14:33N 44°25' E 008°55'0 0.0
2017-Mar-18 13:33N 44°25' E 008°55'0 0.0
2017-Mar-18 12:33N 44°25' E 008°55'0 0.0
2017-Mar-18 11:33N 44°25' E 008°55'0 0.0
2017-Mar-18 10:21N 44°25' E 008°55'0 0.0
2017-Mar-18 09:33N 44°25' E 008°55'0 0.0
2017-Mar-18 08:24N 44°25' E 008°55'0 0.0
2017-Mar-18 07:24N 44°25' E 008°55'0 0.0
2017-Mar-18 06:21N 44°25' E 008°55'0 0.0
2017-Mar-18 05:27N 44°25' E 008°55'0 0.0
2017-Mar-18 04:24N 44°25' E 008°55'0 0.0
2017-Mar-18 03:27N 44°25' E 008°55'0 0.0
2017-Mar-18 02:30N 44°25' E 008°55'0 0.0
2017-Mar-18 01:27N 44°25' E 008°55'0 0.0
2017-Mar-18 00:30N 44°25' E 008°55'0 0.0
2017-Mar-17 23:33N 44°25' E 008°55'0 0.0
2017-Mar-17 22:33N 44°25' E 008°55'0 0.0
2017-Mar-17 21:33N 44°25' E 008°55'0 0.0
2017-Mar-17 20:33N 44°25' E 008°55'0 0.0
2017-Mar-17 19:33N 44°25' E 008°55'0 0.0
2017-Mar-17 18:33N 44°25' E 008°55'0 0.0
2017-Mar-17 17:33N 44°25' E 008°55'0 0.0
2017-Mar-17 16:33N 44°25' E 008°55'0 0.0
2017-Mar-17 15:21N 44°25' E 008°55'0 0.0
2017-Mar-17 14:27N 44°25' E 008°55'0 0.0
2017-Mar-17 13:27N 44°25' E 008°55'0 0.0
2017-Mar-17 12:24N 44°25' E 008°55'0 0.0
2017-Mar-17 11:15N 44°25' E 008°55'0 0.0
2017-Mar-17 10:30N 44°25' E 008°55'0 0.0
2017-Mar-17 09:18N 44°25' E 008°55'0 0.0
2017-Mar-17 08:33N 44°25' E 008°55'0 0.0
2017-Mar-17 07:33N 44°25' E 008°55'0 0.0
2017-Mar-17 06:33N 44°25' E 008°55'0 0.0
2017-Mar-17 05:33N 44°25' E 008°55'0 0.0
2017-Mar-17 04:30N 44°25' E 008°55'0 0.0
2017-Mar-17 03:30N 44°25' E 008°55'0 0.0
2017-Mar-17 02:30N 44°25' E 008°55'0 0.0
2017-Mar-17 01:30N 44°25' E 008°55'0 0.0
2017-Mar-17 00:30N 44°25' E 008°55'0 0.0
2017-Mar-16 23:33N 44°25' E 008°55'0 0.0
2017-Mar-16 22:33N 44°25' E 008°55'0 0.0
2017-Mar-16 21:21N 44°25' E 008°55'0 0.0
2017-Mar-16 20:21N 44°25' E 008°55'0 0.0
2017-Mar-16 19:33N 44°25' E 008°55'0 0.0
2017-Mar-16 18:33N 44°25' E 008°55'0 0.0
2017-Mar-16 17:33N 44°25' E 008°55'0 0.0
2017-Mar-16 16:24N 44°25' E 008°55'0 0.0
2017-Mar-16 15:24N 44°25' E 008°55'0 0.0
2017-Mar-16 14:27N 44°25' E 008°55'0 0.0
2017-Mar-16 13:27N 44°25' E 008°55'0 0.0
2017-Mar-16 12:27N 44°25' E 008°55'0 0.0
2017-Mar-16 11:30N 44°25' E 008°55'0 0.0
2017-Mar-16 10:15N 44°25' E 008°55'0 0.0
2017-Mar-16 09:30N 44°25' E 008°55'0 0.0
2017-Mar-16 08:30N 44°25' E 008°55'0 0.0
2017-Mar-16 07:30N 44°25' E 008°55'0 0.0
2017-Mar-16 06:33N 44°25' E 008°55'0 0.0
2017-Mar-16 05:30N 44°25' E 008°55'0 0.0
2017-Mar-16 04:33N 44°25' E 008°55'0 0.0
2017-Mar-16 03:30N 44°25' E 008°55'0 0.0
2017-Mar-16 02:33N 44°25' E 008°55'0 0.0
2017-Mar-16 01:33N 44°25' E 008°55'0 0.0
2017-Mar-16 00:33N 44°25' E 008°55'0 0.0
2017-Mar-15 23:24N 44°25' E 008°55'0 0.0
2017-Mar-15 22:27N 44°25' E 008°55'0 0.0
2017-Mar-15 21:27N 44°25' E 008°55'0 0.0
2017-Mar-15 20:27N 44°25' E 008°55'0 0.0
2017-Mar-15 19:27N 44°25' E 008°55'0 0.0
2017-Mar-15 18:30N 44°25' E 008°55'0 0.0
2017-Mar-15 17:27N 44°25' E 008°55'0 0.0
2017-Mar-15 16:30N 44°25' E 008°55'0 0.0
2017-Mar-15 15:30N 44°25' E 008°55'0 0.0
2017-Mar-15 14:33N 44°25' E 008°55'0 0.0
2017-Mar-15 13:33N 44°25' E 008°55'0 0.0
2017-Mar-15 12:32N 44°25' E 008°55'0 0.0
2017-Mar-15 11:20N 44°25' E 008°55'0 0.0
2017-Mar-15 10:32N 44°25' E 008°55'0 0.0
2017-Mar-15 09:32N 44°25' E 008°55'0 0.0
2017-Mar-15 08:23N 44°25' E 008°55'0 0.0
2017-Mar-15 07:23N 44°25' E 008°55'0 0.0
2017-Mar-15 06:23N 44°25' E 008°55'0 0.0
2017-Mar-15 05:26N 44°25' E 008°55'0 0.0
2017-Mar-15 04:26N 44°25' E 008°55'0 0.0
2017-Mar-15 03:26N 44°25' E 008°55'0 0.0
2017-Mar-15 02:26N 44°25' E 008°55'0 0.0
2017-Mar-15 01:26N 44°25' E 008°55'0 0.0
2017-Mar-15 00:26N 44°25' E 008°55'0 0.0
2017-Mar-14 23:29N 44°25' E 008°55'0 0.0
2017-Mar-14 22:32N 44°25' E 008°55'0 0.0
2017-Mar-14 21:32N 44°25' E 008°55'0 0.0
2017-Mar-14 20:29N 44°25' E 008°55'0 0.0
2017-Mar-14 19:32N 44°25' E 008°55'0 0.0
2017-Mar-14 18:32N 44°25' E 008°55'0 0.0
2017-Mar-14 17:32N 44°25' E 008°55'0 0.0
2017-Mar-14 15:26N 44°25' E 008°55'0 0.0
2017-Mar-14 14:26N 44°25' E 008°55'0 0.0
2017-Mar-14 13:26N 44°25' E 008°55'0 0.0
2017-Mar-14 12:23N 44°25' E 008°55'0 0.0
2017-Mar-14 11:23N 44°25' E 008°55'0 0.0
2017-Mar-14 10:23N 44°25' E 008°55'0 0.0
2017-Mar-14 08:14N 44°25' E 008°55'  
Track history (hours):
 
Tides and Currents Weather Stations Pressure Air Temp Water Temp Dewpoint Dewpoint Depression Visibility Wind Speed Wind Dir Waves Ship Positions

Brigitte Bardot

Last reported at 2017-Mar-24 07:32 UTC. Time now 2017-Mar-28 15:56 UTC.
Position N 42°26' E 011°07'.

Length 35 m.

Type: Pleasure craft. MMSI: 503645100.

Date/timePositionNaut miles runAvg speedWind from/ knotsBaromVisibWave heightAir tempDewpointWater temp
2017-Mar-24 07:32N 42°26' E 011°07'0 0.0
2017-Mar-24 06:32N 42°26' E 011°07'0 0.0
2017-Mar-24 05:32N 42°26' E 011°07'0 0.0
2017-Mar-24 04:32N 42°26' E 011°07'0 0.0
2017-Mar-24 03:32N 42°26' E 011°07'0 0.0
2017-Mar-24 02:32N 42°26' E 011°07'0 0.0
2017-Mar-24 01:29N 42°26' E 011°07'0 0.0
2017-Mar-24 00:32N 42°26' E 011°07'0 0.0
2017-Mar-23 23:32N 42°26' E 011°07'0 0.0
2017-Mar-23 22:32N 42°26' E 011°07'  
2017-Mar-21 13:31N 43°22' E 009°38'1010.1
2017-Mar-21 12:33N 43°31' E 009°32'1010.0
2017-Mar-21 11:33N 43°40' E 009°25'10 9.7
2017-Mar-21 10:33N 43°48' E 009°19'9 9.4
2017-Mar-21 09:33N 43°57' E 009°14'1010.4
2017-Mar-21 08:33N 44°06' E 009°07'1310.6
2017-Mar-21 07:17N 44°18' E 008°60'7 8.8
2017-Mar-21 06:30N 44°24' E 008°55'0 0.1
2017-Mar-21 05:22N 44°25' E 008°55'0 0.0
2017-Mar-21 04:25N 44°25' E 008°55'0 0.0
2017-Mar-21 03:22N 44°25' E 008°55'0 0.0
2017-Mar-21 02:25N 44°25' E 008°55'0 0.0
2017-Mar-21 01:25N 44°25' E 008°55'0 0.0
2017-Mar-21 00:28N 44°25' E 008°55'0 0.0
2017-Mar-20 23:28N 44°25' E 008°55'0 0.0
2017-Mar-20 22:13N 44°25' E 008°55'0 0.0
2017-Mar-20 21:28N 44°25' E 008°55'0 0.0
2017-Mar-20 20:25N 44°25' E 008°55'0 0.0
2017-Mar-20 19:28N 44°25' E 008°55'0 0.0
2017-Mar-20 18:28N 44°25' E 008°55'0 0.0
2017-Mar-20 17:27N 44°25' E 008°55'0 0.0
2017-Mar-20 16:27N 44°25' E 008°55'0 0.0
2017-Mar-20 15:33N 44°25' E 008°55'0 0.0
2017-Mar-20 14:33N 44°25' E 008°55'0 0.0
2017-Mar-20 13:33N 44°25' E 008°55'0 0.0
2017-Mar-20 12:33N 44°25' E 008°55'0 0.0
2017-Mar-20 11:33N 44°25' E 008°55'0 0.0
2017-Mar-20 10:21N 44°25' E 008°55'0 0.0
2017-Mar-20 09:33N 44°25' E 008°55'0 0.0
2017-Mar-20 08:33N 44°25' E 008°55'0 0.0
2017-Mar-20 07:33N 44°25' E 008°55'0 0.0
2017-Mar-20 06:24N 44°25' E 008°55'0 0.0
2017-Mar-20 05:24N 44°25' E 008°55'0 0.0
2017-Mar-20 04:27N 44°25' E 008°55'0 0.0
2017-Mar-20 03:27N 44°25' E 008°55'0 0.0
2017-Mar-20 02:27N 44°25' E 008°55'0 0.0
2017-Mar-20 01:30N 44°25' E 008°55'0 0.0
2017-Mar-20 00:30N 44°25' E 008°55'0 0.0
2017-Mar-19 23:30N 44°25' E 008°55'0 0.0
2017-Mar-19 22:33N 44°25' E 008°55'0 0.0
2017-Mar-19 21:33N 44°25' E 008°55'0 0.0
2017-Mar-19 20:33N 44°25' E 008°55'0 0.0
2017-Mar-19 19:33N 44°25' E 008°55'0 0.0
2017-Mar-19 18:33N 44°25' E 008°55'0 0.0
2017-Mar-19 17:33N 44°25' E 008°55'0 0.0
2017-Mar-19 16:33N 44°25' E 008°55'0 0.0
2017-Mar-19 15:24N 44°25' E 008°55'0 0.0
2017-Mar-19 14:24N 44°25' E 008°55'0 0.0
2017-Mar-19 13:27N 44°25' E 008°55'0 0.0
2017-Mar-19 12:27N 44°25' E 008°55'0 0.0
2017-Mar-19 11:27N 44°25' E 008°55'0 0.0
2017-Mar-19 10:30N 44°25' E 008°55'0 0.0
2017-Mar-19 09:27N 44°25' E 008°55'0 0.0
2017-Mar-19 08:30N 44°25' E 008°55'0 0.0
2017-Mar-19 07:33N 44°25' E 008°55'0 0.0
2017-Mar-19 06:33N 44°25' E 008°55'0 0.0
2017-Mar-19 05:33N 44°25' E 008°55'0 0.0
2017-Mar-19 04:33N 44°25' E 008°55'0 0.0
2017-Mar-19 03:33N 44°25' E 008°55'0 0.0
2017-Mar-19 02:33N 44°25' E 008°55'0 0.0
2017-Mar-19 01:33N 44°25' E 008°55'0 0.0
2017-Mar-19 00:21N 44°25' E 008°55'0 0.0
2017-Mar-18 23:27N 44°25' E 008°55'0 0.0
2017-Mar-18 22:24N 44°25' E 008°55'0 0.0
2017-Mar-18 21:27N 44°25' E 008°55'0 0.0
2017-Mar-18 20:27N 44°25' E 008°55'0 0.0
2017-Mar-18 19:27N 44°25' E 008°55'0 0.0
2017-Mar-18 18:27N 44°25' E 008°55'0 0.0
2017-Mar-18 17:30N 44°25' E 008°55'0 0.0
2017-Mar-18 16:30N 44°25' E 008°55'0 0.0
2017-Mar-18 15:30N 44°25' E 008°55'0 0.0
2017-Mar-18 14:33N 44°25' E 008°55'0 0.0
2017-Mar-18 13:33N 44°25' E 008°55'0 0.0
2017-Mar-18 12:33N 44°25' E 008°55'0 0.0
2017-Mar-18 11:33N 44°25' E 008°55'0 0.0
2017-Mar-18 10:21N 44°25' E 008°55'0 0.0
2017-Mar-18 09:33N 44°25' E 008°55'0 0.0
2017-Mar-18 08:24N 44°25' E 008°55'0 0.0
2017-Mar-18 07:24N 44°25' E 008°55'0 0.0
2017-Mar-18 06:21N 44°25' E 008°55'0 0.0
2017-Mar-18 05:27N 44°25' E 008°55'0 0.0
2017-Mar-18 04:24N 44°25' E 008°55'0 0.0
2017-Mar-18 03:27N 44°25' E 008°55'0 0.0
2017-Mar-18 02:30N 44°25' E 008°55'0 0.0
2017-Mar-18 01:27N 44°25' E 008°55'0 0.0
2017-Mar-18 00:30N 44°25' E 008°55'0 0.0
2017-Mar-17 23:33N 44°25' E 008°55'0 0.0
2017-Mar-17 22:33N 44°25' E 008°55'0 0.0
2017-Mar-17 21:33N 44°25' E 008°55'0 0.0
2017-Mar-17 20:33N 44°25' E 008°55'0 0.0
2017-Mar-17 19:33N 44°25' E 008°55'0 0.0
2017-Mar-17 18:33N 44°25' E 008°55'0 0.0
2017-Mar-17 17:33N 44°25' E 008°55'0 0.0
2017-Mar-17 16:33N 44°25' E 008°55'0 0.0
2017-Mar-17 15:21N 44°25' E 008°55'0 0.0
2017-Mar-17 14:27N 44°25' E 008°55'0 0.0
2017-Mar-17 13:27N 44°25' E 008°55'0 0.0
2017-Mar-17 12:24N 44°25' E 008°55'0 0.0
2017-Mar-17 11:15N 44°25' E 008°55'0 0.0
2017-Mar-17 10:30N 44°25' E 008°55'0 0.0
2017-Mar-17 09:18N 44°25' E 008°55'0 0.0
2017-Mar-17 08:33N 44°25' E 008°55'0 0.0
2017-Mar-17 07:33N 44°25' E 008°55'0 0.0
2017-Mar-17 06:33N 44°25' E 008°55'0 0.0
2017-Mar-17 05:33N 44°25' E 008°55'0 0.0
2017-Mar-17 04:30N 44°25' E 008°55'0 0.0
2017-Mar-17 03:30N 44°25' E 008°55'0 0.0
2017-Mar-17 02:30N 44°25' E 008°55'0 0.0
2017-Mar-17 01:30N 44°25' E 008°55'0 0.0
2017-Mar-17 00:30N 44°25' E 008°55'0 0.0
2017-Mar-16 23:33N 44°25' E 008°55'0 0.0
2017-Mar-16 22:33N 44°25' E 008°55'0 0.0
2017-Mar-16 21:21N 44°25' E 008°55'0 0.0
2017-Mar-16 20:21N 44°25' E 008°55'0 0.0
2017-Mar-16 19:33N 44°25' E 008°55'0 0.0
2017-Mar-16 18:33N 44°25' E 008°55'0 0.0
2017-Mar-16 17:33N 44°25' E 008°55'0 0.0
2017-Mar-16 16:24N 44°25' E 008°55'0 0.0
2017-Mar-16 15:24N 44°25' E 008°55'0 0.0
2017-Mar-16 14:27N 44°25' E 008°55'0 0.0
2017-Mar-16 13:27N 44°25' E 008°55'0 0.0
2017-Mar-16 12:27N 44°25' E 008°55'0 0.0
2017-Mar-16 11:30N 44°25' E 008°55'0 0.0
2017-Mar-16 10:15N 44°25' E 008°55'0 0.0
2017-Mar-16 09:30N 44°25' E 008°55'0 0.0
2017-Mar-16 08:30N 44°25' E 008°55'0 0.0
2017-Mar-16 07:30N 44°25' E 008°55'0 0.0
2017-Mar-16 06:33N 44°25' E 008°55'0 0.0
2017-Mar-16 05:30N 44°25' E 008°55'0 0.0
2017-Mar-16 04:33N 44°25' E 008°55'0 0.0
2017-Mar-16 03:30N 44°25' E 008°55'0 0.0
2017-Mar-16 02:33N 44°25' E 008°55'0 0.0
2017-Mar-16 01:33N 44°25' E 008°55'0 0.0
2017-Mar-16 00:33N 44°25' E 008°55'0 0.0
2017-Mar-15 23:24N 44°25' E 008°55'0 0.0
2017-Mar-15 22:27N 44°25' E 008°55'0 0.0
2017-Mar-15 21:27N 44°25' E 008°55'0 0.0
2017-Mar-15 20:27N 44°25' E 008°55'0 0.0
2017-Mar-15 19:27N 44°25' E 008°55'0 0.0
2017-Mar-15 18:30N 44°25' E 008°55'0 0.0
2017-Mar-15 17:27N 44°25' E 008°55'0 0.0
2017-Mar-15 16:30N 44°25' E 008°55'0 0.0
2017-Mar-15 15:30N 44°25' E 008°55'0 0.0
2017-Mar-15 14:33N 44°25' E 008°55'0 0.0
2017-Mar-15 13:33N 44°25' E 008°55'0 0.0
2017-Mar-15 12:32N 44°25' E 008°55'0 0.0
2017-Mar-15 11:20N 44°25' E 008°55'0 0.0
2017-Mar-15 10:32N 44°25' E 008°55'0 0.0
2017-Mar-15 09:32N 44°25' E 008°55'0 0.0
2017-Mar-15 08:23N 44°25' E 008°55'0 0.0
2017-Mar-15 07:23N 44°25' E 008°55'0 0.0
2017-Mar-15 06:23N 44°25' E 008°55'0 0.0
2017-Mar-15 05:26N 44°25' E 008°55'0 0.0
2017-Mar-15 04:26N 44°25' E 008°55'0 0.0
2017-Mar-15 03:26N 44°25' E 008°55'0 0.0
2017-Mar-15 02:26N 44°25' E 008°55'0 0.0
2017-Mar-15 01:26N 44°25' E 008°55'0 0.0
2017-Mar-15 00:26N 44°25' E 008°55'0 0.0
2017-Mar-14 23:29N 44°25' E 008°55'0 0.0
2017-Mar-14 22:32N 44°25' E 008°55'0 0.0
2017-Mar-14 21:32N 44°25' E 008°55'0 0.0
2017-Mar-14 20:29N 44°25' E 008°55'0 0.0
2017-Mar-14 19:32N 44°25' E 008°55'0 0.0
2017-Mar-14 18:32N 44°25' E 008°55'0 0.0
2017-Mar-14 17:32N 44°25' E 008°55'0 0.0
2017-Mar-14 15:26N 44°25' E 008°55'0 0.0
2017-Mar-14 14:26N 44°25' E 008°55'0 0.0
2017-Mar-14 13:26N 44°25' E 008°55'0 0.0
2017-Mar-14 12:23N 44°25' E 008°55'0 0.0
2017-Mar-14 11:23N 44°25' E 008°55'0 0.0
2017-Mar-14 10:23N 44°25' E 008°55'0 0.0
2017-Mar-14 08:14N 44°25' E 008°55'  

Dump ship's entire track history